Terminal Aerodrome Forecast
Issued by NWS Norman, OK

Home | Current Version | Previous Version | Text Only | Print | Product List | Glossary On
Versions: 1 2 3 4 5 6 7 8 9 10 11 12 13 14 15 16 17 18 19 20 21 22 23 24 25 26 27 28 29 30 31 32 33 34 35 36 37 38 39 40 41 42 43 44
000
FTUS44 KOUN 190527
TAFOKC
TAF
KOKC 190527Z 1906/2006 34030G38KT P6SM OVC010
      TEMPO 1907/1910 4SM -SN BLSN BKN008
     FM191200 34026G35KT P6SM OVC025
     FM191800 34022G27KT P6SM BKN050
     FM200000 35016KT P6SM SKC
     FM200300 35010KT P6SM SKC=

USA.gov is the U.S. government's official web portal to all federal, state and local government web resources and services.